LiveATC.Net - Listen to live air traffic control over the Internet!


ICAO: KL35  IATA: L35   Airport: Big Bear City Airport
City: Big Bear City   State/Province: California
Country: United States   Continent: North America
KL35 METAR Weather: KL35 271015Z AUTO 26009G15KT 10SM OVC012 01/01 A2995 RMK AO2
KL35 ADS-B Flight Tracking  (ADSBExchange)
KL35 Flight Activity (FlightAware)
KL35 Airport Info   (iFlightPlanner)
KL35 VFR Sectional Chart   (iFlightPlanner) 
KL35 IFR Low Altitude Chart   (iFlightPlanner) 
KL35 IFR High Altitude Chart   (iFlightPlanner) 

L35 AWOS
Feed Status: UP   Listeners: 0
Listen in your browser - HTML5 player (in browser, HTML5)
Click here to listen with your own player (launches your MP3 player)
Archive Access: L35 AWOS
FacilityFrequency
Big Bear AWOS135.925

NOTICE

Unauthorized use prohibited. See LiveATC.net Terms of Service


Airport/ARTCC Code
Frequency Search
(e.g., 124.400, 128.75)
Site-wide search
 


Browse Feeds
Top 50 Feeds
HF Oceanic Feeds
Coverage Map
Bad Weather Areas

LiveATC FAQ

Increase Coverage

Contact LiveATC.net
Press Inquiries

LiveATC on iPhone
LiveATC on Android

LiveATC Mobile
(Mobile browser)

ATC Audio Archives
Interesting Recordings

LiveATC Forums


Home Page
About LiveATC.net


Terms of Use
Privacy Policy

AIRMETs/SIGMETs

FAA Airport Status
NAS Status
Arrival Demand


Server Software By:
Icecast.org
Liquidsoap